createdAt,value
2019-02-19T00:02:42.893Z,2.33
2019-02-19T00:06:49.562Z,2.60
2019-02-19T00:10:53.744Z,2.47
2019-02-19T00:14:57.985Z,2.67
2019-02-19T00:19:02.103Z,2.70
2019-02-19T00:23:06.168Z,2.67
2019-02-19T00:27:10.154Z,2.23
2019-02-19T00:31:14.269Z,2.70
2019-02-19T00:35:18.469Z,2.73
2019-02-19T00:39:22.356Z,2.60
2019-02-19T00:43:29.519Z,2.80
2019-02-19T00:47:33.564Z,2.23
2019-02-19T00:51:39.041Z,2.43
2019-02-19T00:55:43.022Z,2.50
2019-02-19T00:59:47.012Z,2.50
2019-02-19T01:03:51.147Z,2.60
2019-02-19T01:07:55.340Z,2.67
2019-02-19T01:11:59.497Z,2.50
2019-02-19T01:16:03.548Z,2.70
2019-02-19T01:20:08.047Z,2.83
2019-02-19T01:24:12.361Z,2.60
2019-02-19T01:28:16.443Z,3.30
2019-02-19T01:32:20.503Z,2.53
2019-02-19T01:36:24.525Z,2.80
2019-02-19T01:40:28.726Z,2.60
2019-02-19T01:44:32.932Z,2.57
2019-02-19T01:48:37.002Z,3.07
2019-02-19T01:52:40.976Z,2.57
2019-02-19T01:56:45.074Z,2.70
2019-02-19T02:00:49.142Z,2.30
2019-02-19T02:04:53.238Z,3.03
2019-02-19T02:08:57.325Z,2.80
2019-02-19T02:13:01.444Z,3.10
2019-02-19T02:17:05.480Z,2.80
2019-02-19T02:21:09.514Z,2.50
2019-02-19T02:25:14.590Z,2.50
2019-02-19T02:29:18.451Z,2.97
2019-02-19T02:33:22.609Z,2.13
2019-02-19T02:37:26.619Z,2.73
2019-02-19T02:41:30.543Z,2.47
2019-02-19T02:45:34.869Z,2.50
2019-02-19T02:49:38.892Z,2.70
2019-02-19T02:53:42.915Z,2.50
2019-02-19T02:57:46.939Z,2.83
2019-02-19T03:01:51.173Z,2.60
2019-02-19T03:05:57.142Z,3.10
2019-02-19T03:10:01.302Z,2.77
2019-02-19T03:14:06.497Z,3.20
2019-02-19T03:18:10.565Z,2.70
2019-02-19T03:22:14.588Z,3.13
2019-02-19T03:26:18.568Z,2.70
2019-02-19T03:30:22.534Z,2.57
2019-02-19T03:34:26.596Z,2.77
2019-02-19T03:38:30.643Z,3.00
2019-02-19T03:42:34.830Z,3.10
2019-02-19T03:46:38.965Z,2.83
2019-02-19T03:50:43.012Z,2.60
2019-02-19T03:54:47.247Z,3.00
2019-02-19T03:58:51.491Z,3.20
2019-02-19T04:02:55.484Z,3.10
2019-02-19T04:06:59.430Z,3.20
2019-02-19T04:11:03.403Z,3.07
2019-02-19T04:15:07.898Z,2.77
2019-02-19T04:19:11.892Z,3.10
2019-02-19T04:23:15.935Z,3.20
2019-02-19T04:27:20.030Z,2.70
2019-02-19T04:31:24.032Z,3.10
2019-02-19T04:35:28.027Z,3.03
2019-02-19T04:39:32.121Z,2.77
2019-02-19T04:43:36.188Z,2.80
2019-02-19T04:47:40.241Z,2.87
2019-02-19T04:51:44.296Z,2.77
2019-02-19T04:55:48.334Z,2.77
2019-02-19T04:59:52.321Z,3.10
2019-02-19T05:03:56.575Z,2.80
2019-02-19T05:08:00.765Z,2.87
2019-02-19T05:12:04.993Z,3.30
2019-02-19T05:16:09.202Z,3.03
2019-02-19T05:20:13.294Z,3.03
2019-02-19T05:24:17.341Z,3.10
2019-02-19T05:28:21.403Z,3.23
2019-02-19T05:32:25.589Z,3.23
2019-02-19T05:36:29.608Z,3.20
2019-02-19T05:40:33.832Z,3.43
2019-02-19T05:44:38.186Z,4.10
2019-02-19T05:48:42.277Z,3.13
2019-02-19T05:52:46.270Z,4.43
2019-02-19T05:56:50.158Z,4.10
2019-02-19T06:00:54.206Z,4.50
2019-02-19T06:04:58.494Z,4.53
2019-02-19T06:09:03.156Z,3.90
2019-02-19T06:13:08.404Z,4.23
2019-02-19T06:17:12.561Z,3.67
2019-02-19T06:21:16.657Z,3.60
2019-02-19T06:25:22.795Z,3.47
2019-02-19T06:29:26.830Z,3.70
2019-02-19T06:33:30.771Z,4.07
2019-02-19T06:37:34.838Z,3.63
2019-02-19T06:41:38.901Z,3.87
2019-02-19T06:45:43.048Z,3.57
2019-02-19T06:49:47.081Z,4.23
2019-02-19T06:53:51.092Z,4.13
2019-02-19T06:57:55.155Z,3.90
2019-02-19T07:02:09.273Z,3.93
2019-02-19T07:06:13.304Z,3.93
2019-02-19T07:10:17.431Z,4.47
2019-02-19T07:14:21.884Z,4.23
2019-02-19T07:18:25.774Z,4.30
2019-02-19T07:22:29.831Z,3.27
2019-02-19T07:26:33.963Z,4.47
2019-02-19T07:30:38.004Z,5.03
2019-02-19T07:34:43.542Z,5.07
2019-02-19T07:38:47.522Z,4.20
2019-02-19T07:42:51.598Z,3.90
2019-02-19T07:46:55.615Z,4.40
2019-02-19T07:50:59.505Z,4.27
2019-02-19T07:55:03.577Z,4.10
2019-02-19T07:59:07.465Z,4.20
2019-02-19T08:03:11.808Z,4.47
2019-02-19T08:07:15.783Z,4.13
2019-02-19T08:11:19.877Z,4.07
2019-02-19T08:15:23.920Z,4.50
2019-02-19T08:19:27.948Z,4.07
2019-02-19T08:23:31.943Z,3.70
2019-02-19T08:27:35.885Z,4.10
2019-02-19T08:31:39.931Z,3.50
2019-02-19T08:35:44.022Z,3.23
2019-02-19T08:39:48.226Z,3.97
2019-02-19T08:43:52.466Z,3.63
2019-02-19T08:47:56.472Z,3.77
2019-02-19T08:52:00.594Z,4.10
2019-02-19T08:56:04.614Z,3.90
2019-02-19T09:00:09.096Z,3.43
2019-02-19T09:04:14.243Z,3.50
2019-02-19T09:08:18.389Z,3.83
2019-02-19T09:12:22.460Z,3.63
2019-02-19T09:16:26.700Z,3.73
2019-02-19T09:20:30.668Z,3.63
2019-02-19T09:24:34.673Z,3.93
2019-02-19T09:28:38.571Z,4.10
2019-02-19T09:32:42.745Z,12.87
2019-02-19T09:36:46.851Z,6.40
2019-02-19T09:40:50.963Z,8.37
2019-02-19T09:44:54.977Z,6.67
2019-02-19T09:48:59.129Z,4.27
2019-02-19T09:53:03.060Z,4.20
2019-02-19T09:57:07.053Z,3.20
2019-02-19T10:01:11.374Z,4.20
2019-02-19T10:05:15.601Z,4.47
2019-02-19T10:09:19.622Z,4.07
2019-02-19T10:13:25.504Z,2.97
2019-02-19T10:17:29.487Z,3.73
2019-02-19T10:21:33.552Z,2.60
2019-02-19T10:25:37.593Z,2.83
2019-02-19T10:29:41.709Z,1.77
2019-02-19T10:33:45.890Z,1.63
2019-02-19T10:37:51.624Z,1.73
2019-02-19T10:41:55.733Z,1.80
2019-02-19T10:45:59.869Z,1.73
2019-02-19T10:50:04.053Z,1.77
2019-02-19T10:54:08.138Z,1.87
2019-02-19T10:58:12.366Z,1.40
2019-02-19T11:02:16.422Z,1.20
2019-02-19T11:06:20.460Z,1.40
2019-02-19T11:10:25.743Z,1.10
2019-02-19T11:14:33.659Z,1.73
2019-02-19T11:18:37.948Z,1.20
2019-02-19T11:22:42.056Z,1.37
2019-02-19T11:26:46.236Z,1.17
2019-02-19T11:30:50.480Z,1.27
2019-02-19T11:34:54.536Z,1.33
2019-02-19T11:38:58.798Z,1.40
2019-02-19T11:43:02.771Z,1.40
2019-02-19T11:47:06.919Z,1.10
2019-02-19T11:51:11.029Z,1.10
2019-02-19T11:55:15.163Z,1.80
2019-02-19T11:59:19.255Z,1.20
2019-02-19T12:03:23.434Z,0.90
2019-02-19T12:07:27.902Z,1.20
2019-02-19T12:11:32.100Z,0.97
2019-02-19T12:15:36.358Z,1.20
2019-02-19T12:19:40.466Z,1.23
2019-02-19T12:23:44.527Z,0.97
2019-02-19T12:27:48.482Z,0.90
2019-02-19T12:31:52.603Z,1.00
2019-02-19T12:35:56.731Z,1.57
2019-02-19T12:40:00.805Z,0.83
2019-02-19T12:44:05.802Z,0.73
2019-02-19T12:48:10.167Z,1.17
2019-02-19T12:52:14.196Z,0.80
2019-02-19T12:56:18.391Z,1.00
2019-02-19T13:00:22.398Z,0.80
2019-02-19T13:04:26.543Z,0.83
2019-02-19T13:08:30.496Z,0.70
2019-02-19T13:12:34.663Z,0.80
2019-02-19T13:16:38.786Z,0.80
2019-02-19T13:20:42.838Z,0.90
2019-02-19T13:24:46.762Z,1.00
2019-02-19T13:28:50.632Z,0.93
2019-02-19T13:32:54.690Z,0.80
2019-02-19T13:36:58.764Z,0.70
2019-02-19T13:41:02.816Z,0.77
2019-02-19T13:45:07.389Z,0.73
2019-02-19T13:49:12.492Z,0.70
2019-02-19T13:53:26.474Z,1.03
2019-02-19T13:57:30.375Z,0.67
2019-02-19T14:01:34.473Z,0.80
2019-02-19T14:05:38.412Z,0.90
2019-02-19T14:09:42.617Z,0.90
2019-02-19T14:13:54.361Z,1.00
2019-02-19T14:17:58.964Z,0.60
2019-02-19T14:22:11.998Z,0.70
2019-02-19T14:26:35.315Z,0.70
2019-02-19T14:30:59.060Z,1.03
2019-02-19T14:35:22.366Z,0.77
2019-02-19T14:39:37.326Z,1.00
2019-02-19T14:43:51.228Z,0.67
2019-02-19T14:48:14.466Z,0.57
2019-02-19T14:52:37.682Z,0.60
2019-02-19T14:57:00.853Z,0.70
2019-02-19T15:01:24.090Z,0.60
2019-02-19T15:05:47.359Z,0.73
2019-02-19T15:10:07.708Z,1.10
2019-02-19T15:14:29.833Z,0.90
2019-02-19T15:18:53.475Z,0.43
2019-02-19T15:23:16.751Z,0.60
2019-02-19T15:27:34.362Z,0.50
2019-02-19T15:31:57.643Z,0.60
2019-02-19T15:36:17.851Z,0.50
2019-02-19T15:40:31.228Z,0.53
2019-02-19T15:44:46.118Z,0.70
2019-02-19T15:49:09.442Z,0.60
2019-02-19T15:53:23.856Z,0.97
2019-02-19T15:57:47.271Z,1.47
2019-02-19T16:02:01.012Z,1.20
2019-02-19T16:06:24.260Z,1.50
2019-02-19T16:10:34.051Z,1.00
2019-02-19T16:14:53.097Z,1.20
2019-02-19T16:19:16.292Z,1.17
2019-02-19T16:23:39.664Z,0.80
2019-02-19T16:27:55.646Z,1.83
2019-02-19T16:32:08.876Z,1.20
2019-02-19T16:36:19.307Z,0.87
2019-02-19T16:40:32.027Z,0.80
2019-02-19T16:44:44.362Z,1.20
2019-02-19T16:48:56.561Z,2.33
2019-02-19T16:53:19.854Z,1.37
2019-02-19T16:57:34.578Z,1.80
2019-02-19T17:01:57.836Z,1.90
2019-02-19T17:06:08.233Z,1.03
2019-02-19T17:10:21.232Z,5.30
2019-02-19T17:14:40.960Z,11.33
2019-02-19T17:19:04.235Z,15.70
2019-02-19T17:23:14.867Z,6.70
2019-02-19T17:27:39.400Z,2.20
2019-02-19T17:31:55.979Z,1.70
2019-02-19T17:36:19.251Z,1.70
2019-02-19T17:40:32.271Z,2.10
2019-02-19T17:44:55.492Z,1.20
2019-02-19T17:49:07.201Z,1.60
2019-02-19T17:53:27.308Z,0.90
2019-02-19T17:57:47.035Z,1.13
2019-02-19T18:02:10.242Z,1.20
2019-02-19T18:06:26.411Z,2.30
2019-02-19T18:10:36.453Z,3.10
2019-02-19T18:14:59.564Z,2.60
2019-02-19T18:19:03.865Z,2.60
2019-02-19T18:23:07.885Z,2.00
2019-02-19T18:27:11.847Z,1.93
2019-02-19T18:31:15.845Z,1.40
2019-02-19T18:35:20.021Z,1.40
2019-02-19T18:39:24.202Z,1.30
2019-02-19T18:43:28.335Z,1.57
2019-02-19T18:47:32.309Z,1.47
2019-02-19T18:51:36.431Z,1.30
2019-02-19T18:55:41.428Z,1.17
2019-02-19T18:59:45.679Z,1.20
2019-02-19T19:03:49.782Z,1.57
2019-02-19T19:07:53.843Z,1.70
2019-02-19T19:11:57.812Z,1.00
2019-02-19T19:16:01.928Z,1.50
2019-02-19T19:20:06.535Z,2.13
2019-02-19T19:24:11.023Z,1.77
2019-02-19T19:28:15.384Z,1.40
2019-02-19T19:32:19.472Z,1.47
2019-02-19T19:36:24.867Z,1.23
2019-02-19T19:40:29.115Z,1.10
2019-02-19T19:44:34.268Z,1.00
2019-02-19T19:48:38.354Z,1.17
2019-02-19T19:52:42.430Z,1.03
2019-02-19T19:56:46.413Z,1.20
2019-02-19T20:00:50.747Z,1.77
2019-02-19T20:04:54.912Z,0.93
2019-02-19T20:09:01.268Z,1.00
2019-02-19T20:13:06.710Z,1.40
2019-02-19T20:17:10.890Z,1.53
2019-02-19T20:21:14.955Z,1.33
2019-02-19T20:25:19.152Z,1.00
2019-02-19T20:29:23.295Z,1.43
2019-02-19T20:33:27.477Z,1.20
2019-02-19T20:37:31.513Z,1.33
2019-02-19T20:41:35.660Z,1.77
2019-02-19T20:45:39.796Z,1.67
2019-02-19T20:49:44.820Z,1.90
2019-02-19T20:53:48.800Z,2.20
2019-02-19T20:57:52.712Z,2.00
2019-02-19T21:01:56.684Z,1.80
2019-02-19T21:06:00.885Z,2.00
2019-02-19T21:10:06.491Z,1.30
2019-02-19T21:14:10.763Z,1.50
2019-02-19T21:18:15.007Z,2.27
2019-02-19T21:22:19.542Z,1.90
2019-02-19T21:26:23.589Z,1.53
2019-02-19T21:30:27.578Z,1.40
2019-02-19T21:34:31.722Z,1.40
2019-02-19T21:38:37.244Z,1.70
2019-02-19T21:42:41.296Z,1.47
2019-02-19T21:46:45.366Z,1.40
2019-02-19T21:50:49.351Z,1.50
2019-02-19T21:54:53.501Z,2.50
2019-02-19T21:58:57.504Z,2.30
2019-02-19T22:03:01.635Z,1.80
2019-02-19T22:07:05.705Z,1.73
2019-02-19T22:11:09.969Z,1.53
2019-02-19T22:15:13.953Z,1.67
2019-02-19T22:19:18.077Z,1.53
2019-02-19T22:23:22.084Z,1.80
2019-02-19T22:27:26.276Z,1.57
2019-02-19T22:31:30.368Z,1.53
2019-02-19T22:35:34.449Z,1.60
2019-02-19T22:39:38.546Z,1.63
2019-02-19T22:43:42.596Z,1.50
2019-02-19T22:47:53.254Z,1.83
2019-02-19T22:51:53.560Z,1.63
2019-02-19T22:56:03.488Z,1.40
2019-02-19T23:00:11.104Z,1.70
2019-02-19T23:04:16.578Z,1.67
2019-02-19T23:08:20.514Z,1.63
2019-02-19T23:12:24.747Z,1.80
2019-02-19T23:16:29.871Z,1.40
2019-02-19T23:20:34.140Z,1.60
2019-02-19T23:24:38.231Z,1.53
2019-02-19T23:28:42.388Z,1.50
2019-02-19T23:32:46.479Z,1.33
2019-02-19T23:36:56.900Z,1.60
2019-02-19T23:41:00.827Z,1.60
2019-02-19T23:45:05.326Z,1.37
2019-02-19T23:49:09.440Z,1.43
2019-02-19T23:53:13.514Z,1.40
2019-02-19T23:57:17.765Z,1.40
